M I D A S
Marine Information and Data Acquisition System
Tripno 1773 of the Zeeleeuw from 2009-09-09 06:36:56 to 2009-09-09 15:09:02
Back to CruiseResearch ActivitiesStationsMapUnderway DataData graphs

EquipmentUnitsComment
TimeDGPSUTC
LatitudeDGPSDM.mWGS84
LongitudeDGPSDM.mWGS84
HeadingGyrodeg 
SOGDGPSknotsSpeed over ground
COGDGPSdegCourse over ground
DepthEcho soundermeters200 kHz
Missing or incorrect values are displayed as -999
Navigation data collected by the RV Zeeleeuw from 2009-09-09 06:28:54 to 2009-09-09 15:19:10
Time Latitude Longitude Heading SOG COG Depth
2009-09-09 06:30:03 51°13.68 2°55.882 117.5 4.2 295 -999
2009-09-09 06:31:03 51°13.715 2°55.79 132.4 3.9 309 -999
2009-09-09 06:32:02 51°13.746 2°55.741 142.1 3.2 319 -999
2009-09-09 06:33:03 51°13.796 2°55.676 145.1 4.2 322 -999
2009-09-09 06:34:03 51°13.857 2°55.626 173.9 3.7 349 -999
2009-09-09 06:35:02 51°13.903 2°55.632 207.4 2 18 -999
2009-09-09 06:36:00 51°13.907 2°55.624 250.7 0.2 186 11.4
2009-09-09 06:36:59 51°13.907 2°55.623 279.4 2.6 287 11.5
2009-09-09 06:37:59 51°13.966 2°55.547 332.2 7 331 11.8
2009-09-09 06:38:58 51°14.078 2°55.443 334 8.3 331 10.7
2009-09-09 06:39:59 51°14.202 2°55.324 327.7 8.6 323 11.7
2009-09-09 06:40:59 51°14.3 2°55.154 312.6 9.1 308 10.4
2009-09-09 06:41:59 51°14.382 2°54.938 302 10.2 297 10
2009-09-09 06:42:58 51°14.392 2°54.656 261.7 11.8 255 10.4
2009-09-09 06:43:59 51°14.321 2°54.356 252.7 12.1 246 9.4
2009-09-09 06:44:59 51°14.247 2°54.066 249.4 11.8 249 9.4
2009-09-09 06:45:58 51°14.173 2°53.775 250.8 12.1 247 9.8
2009-09-09 06:46:59 51°14.086 2°53.484 241.6 12 240 9.6
2009-09-09 06:47:59 51°13.98 2°53.218 240.5 11.9 234 10.1
2009-09-09 06:48:58 51°13.877 2°52.957 243.4 11.9 243 10.4
2009-09-09 06:49:59 51°13.783 2°52.674 243.8 11.9 244 10.6
2009-09-09 06:50:58 51°13.695 2°52.396 245.7 11.8 241 10.2
2009-09-09 06:51:59 51°13.602 2°52.112 244.2 11.9 243 10.8
2009-09-09 06:52:58 51°13.478 2°51.874 225.4 12.2 223 10.6
2009-09-09 06:53:59 51°13.323 2°51.667 212.7 11.9 215 10.4
2009-09-09 06:54:59 51°13.152 2°51.592 182.7 8 185 9.8
2009-09-09 06:55:59 51°13.052 2°51.587 176.6 5 188 9.8
2009-09-09 06:56:58 51°12.987 2°51.543 212 4 215 9.7
2009-09-09 06:57:59 51°12.939 2°51.473 227.8 3.6 226 9.6
2009-09-09 06:58:59 51°12.9 2°51.402 236.2 3.5 230 9.7
2009-09-09 06:59:59 51°12.863 2°51.335 236.7 3.3 231 9.6
2009-09-09 07:00:59 51°12.833 2°51.258 258.5 3.7 247 9.9
2009-09-09 07:01:59 51°12.813 2°51.156 271.7 4.2 256 9.3
2009-09-09 07:02:59 51°12.8 2°51.046 278.1 4.2 262 9.6
2009-09-09 07:03:59 51°12.786 2°50.936 266.5 4.4 254 9.7
2009-09-09 07:04:59 51°12.76 2°50.83 257.8 4.2 247 9.6
2009-09-09 07:05:59 51°12.73 2°50.732 249.8 4.1 241 9.4
2009-09-09 07:06:59 51°12.692 2°50.644 239.4 4.1 234 9.6
2009-09-09 07:07:59 51°12.652 2°50.559 238.1 4 234 9.5
2009-09-09 07:08:59 51°12.611 2°50.472 240.5 4 237 9.5
2009-09-09 07:09:59 51°12.571 2°50.384 238.3 4.1 234 9.4
2009-09-09 07:10:59 51°12.532 2°50.296 240.2 4.1 236 9.2
2009-09-09 07:11:59 51°12.494 2°50.209 241.2 3.9 235 9.1
2009-09-09 07:12:59 51°12.456 2°50.124 241.5 3.9 235 9.3
2009-09-09 07:13:59 51°12.421 2°50.041 244.3 3.8 235 9.5
2009-09-09 07:14:59 51°12.387 2°49.955 247 3.8 237 9.3
2009-09-09 07:15:59 51°12.353 2°49.87 245.3 3.7 239 8.9
2009-09-09 07:16:59 51°12.319 2°49.782 247.1 3.8 237 9.3
2009-09-09 07:17:59 51°12.286 2°49.696 245.8 3.7 237 9.2
2009-09-09 07:18:59 51°12.253 2°49.611 246 3.9 241 8.9
2009-09-09 07:19:58 51°12.219 2°49.527 244.2 3.9 241 8.7
2009-09-09 07:20:59 51°12.185 2°49.439 245.4 3.8 240 8.9
2009-09-09 07:21:59 51°12.151 2°49.354 243.8 3.8 237 8.9
2009-09-09 07:22:59 51°12.116 2°49.269 244.7 3.9 238 8.8
2009-09-09 07:23:58 51°12.083 2°49.185 245.6 3.7 238 9.1
2009-09-09 07:24:59 51°12.049 2°49.096 247.6 3.8 238 8.9
2009-09-09 07:25:59 51°12.015 2°49.01 245.6 3.8 238 9
2009-09-09 07:26:59 51°11.982 2°48.925 244.7 3.8 241 8.7
2009-09-09 07:27:59 51°11.948 2°48.839 244.6 3.8 236 8.9
2009-09-09 07:28:59 51°11.913 2°48.753 244.4 3.8 237 8.5
2009-09-09 07:29:59 51°11.882 2°48.666 250.5 3.8 240 8.9
2009-09-09 07:30:59 51°11.853 2°48.578 258.4 3.6 249 8.4
2009-09-09 07:31:59 51°11.833 2°48.491 268.3 3.5 252 8.9
2009-09-09 07:32:59 51°11.818 2°48.405 276.8 3.3 257 8.3
2009-09-09 07:33:59 51°11.808 2°48.319 287.6 3.3 262 8.6
2009-09-09 07:34:59 51°11.8 2°48.251 293.3 2.3 255 8.7
2009-09-09 07:35:59 51°11.788 2°48.2 298.8 1.9 252 8.6
2009-09-09 07:36:59 51°11.795 2°48.137 334.7 2.9 308 8.6
2009-09-09 07:37:58 51°11.838 2°48.146 49.2 4.6 53 9.1
2009-09-09 07:38:59 51°11.921 2°48.295 48.1 8.9 45 8.7
2009-09-09 07:39:59 51°12.025 2°48.474 50.9 9.3 50 9.1
2009-09-09 07:40:59 51°12.123 2°48.663 52.1 9.3 51 9.5
2009-09-09 07:41:59 51°12.222 2°48.854 51.3 8.9 54 8.9
2009-09-09 07:42:59 51°12.317 2°49.038 52 9.2 50 9.6
2009-09-09 07:43:58 51°12.413 2°49.224 51.5 9.2 51 9.8
2009-09-09 07:44:59 51°12.513 2°49.416 51.6 9.2 51 9.8
2009-09-09 07:45:59 51°12.612 2°49.603 52.1 9.1 51 10.4
2009-09-09 07:46:59 51°12.707 2°49.789 51.1 9.1 50 10.3
2009-09-09 07:47:59 51°12.803 2°49.976 51.5 9 50 10.3
2009-09-09 07:48:59 51°12.897 2°50.161 51.5 9.1 53 11.2
2009-09-09 07:49:59 51°12.994 2°50.346 51.8 9.1 51 11
2009-09-09 07:50:59 51°13.088 2°50.534 51.4 9 50 10.5
2009-09-09 07:51:59 51°13.182 2°50.72 53.1 8.9 53 11.1
2009-09-09 07:52:59 51°13.263 2°50.922 57.3 9.1 59 10.9
2009-09-09 07:53:59 51°13.342 2°51.117 54.2 8 54 11.1
2009-09-09 07:54:59 51°13.381 2°51.2 45.7 1.5 46 11.1
2009-09-09 07:55:59 51°13.377 2°51.198 56.8 1.1 215 10.7
2009-09-09 07:56:59 51°13.357 2°51.179 79.1 1.7 213 11
2009-09-09 07:57:59 51°13.332 2°51.152 101.6 1.9 216 11.2
2009-09-09 07:58:59 51°13.307 2°51.119 115.5 1.9 223 10.9
2009-09-09 07:59:59 51°13.282 2°51.086 118.7 2 224 10.8
2009-09-09 08:00:59 51°13.257 2°51.053 115.8 2 219 10.6
2009-09-09 08:01:59 51°13.233 2°51.019 115.5 2 221 10.6
2009-09-09 08:02:59 51°13.208 2°50.986 111.9 1.8 217 10.7
2009-09-09 08:03:59 51°13.166 2°50.983 154.2 3.6 182 10.4
2009-09-09 08:04:59 51°13.096 2°50.913 235.8 6.5 236 10.1
2009-09-09 08:05:59 51°13.026 2°50.694 244.4 11.5 243 10.3
2009-09-09 08:06:59 51°12.926 2°50.414 239.6 12.5 241 10.2
2009-09-09 08:07:59 51°12.819 2°50.133 238.6 12.5 239 10
2009-09-09 08:08:59 51°12.706 2°49.862 235.5 12.2 237 9.9
2009-09-09 08:09:59 51°12.585 2°49.596 233.3 12.4 237 9.7
2009-09-09 08:10:59 51°12.466 2°49.329 236.6 12.5 238 9.9
2009-09-09 08:11:59 51°12.361 2°49.05 240.8 12.6 236 9.8
2009-09-09 08:12:59 51°12.262 2°48.766 243.5 12.3 242 10.1
2009-09-09 08:13:59 51°12.159 2°48.483 241.7 12.4 241 9.6
2009-09-09 08:14:59 51°12.055 2°48.201 240.1 12.4 238 9.3
2009-09-09 08:15:59 51°11.953 2°47.919 241 12.2 237 9.8
2009-09-09 08:16:59 51°11.851 2°47.638 241.8 12.2 240 9.4
2009-09-09 08:17:59 51°11.749 2°47.356 241.5 12.3 239 8.9
2009-09-09 08:18:59 51°11.645 2°47.076 240.3 12.3 236 8.9
2009-09-09 08:19:59 51°11.542 2°46.795 242.7 12.3 241 8.4
2009-09-09 08:20:59 51°11.44 2°46.513 243.7 12.1 239 8.3
2009-09-09 08:21:59 51°11.336 2°46.236 240.7 12.2 240 8.2
2009-09-09 08:22:59 51°11.235 2°45.958 243 12.2 244 8.1
2009-09-09 08:23:59 51°11.133 2°45.678 242 12.3 235 8.2
2009-09-09 08:24:59 51°11.032 2°45.396 240 12.3 244 7.7
2009-09-09 08:25:59 51°10.928 2°45.119 238.9 12.3 240 7.8
2009-09-09 08:26:59 51°10.826 2°44.845 240.6 10.8 241 7.8
2009-09-09 08:27:59 51°10.759 2°44.665 245.4 6 241 7.9
2009-09-09 08:28:59 51°10.724 2°44.553 255.6 4.3 247 8
2009-09-09 08:29:59 51°10.706 2°44.44 276.1 4.3 262 8.1
2009-09-09 08:30:59 51°10.696 2°44.331 276.2 4.2 261 8.4
2009-09-09 08:31:59 51°10.682 2°44.222 272.5 4.2 256 8.2
2009-09-09 08:32:59 51°10.668 2°44.114 273.9 3.9 260 7.7
2009-09-09 08:33:59 51°10.655 2°44.018 277.4 3.7 257 8.5
2009-09-09 08:34:59 51°10.643 2°43.927 278.4 3.7 258 8.5
2009-09-09 08:35:59 51°10.633 2°43.833 277.6 3.6 261 8.4
2009-09-09 08:36:59 51°10.619 2°43.738 276.7 3.7 258 8.2
2009-09-09 08:37:59 51°10.605 2°43.643 273.3 3.6 256 8
2009-09-09 08:38:59 51°10.588 2°43.548 267.1 3.8 254 8.3
2009-09-09 08:39:59 51°10.567 2°43.451 264.8 3.9 256 8
2009-09-09 08:40:59 51°10.546 2°43.354 263.5 3.8 249 8.7
2009-09-09 08:41:59 51°10.52 2°43.258 259.4 3.9 248 8.3
2009-09-09 08:42:59 51°10.497 2°43.16 260.4 4 248 8
2009-09-09 08:43:59 51°10.47 2°43.065 259.4 3.9 248 8.4
2009-09-09 08:44:59 51°10.445 2°42.97 257.5 4 243 8.6
2009-09-09 08:45:59 51°10.419 2°42.874 259.4 3.9 248 8.2
2009-09-09 08:46:59 51°10.395 2°42.778 260.3 3.9 250 8.3
2009-09-09 08:47:59 51°10.373 2°42.681 261.9 3.9 251 8.4
2009-09-09 08:48:59 51°10.35 2°42.586 260.1 4 249 8.3
2009-09-09 08:49:59 51°10.326 2°42.492 260.3 3.9 248 8.5
2009-09-09 08:50:59 51°10.302 2°42.394 260.1 4 249 8.2
2009-09-09 08:51:59 51°10.278 2°42.296 259.6 3.9 247 8.7
2009-09-09 08:52:59 51°10.254 2°42.2 260.7 3.9 250 8.3
2009-09-09 08:53:59 51°10.231 2°42.104 260.2 3.9 249 8.6
2009-09-09 08:54:59 51°10.207 2°42.008 260.5 3.9 248 8.2
2009-09-09 08:55:59 51°10.185 2°41.911 261.7 3.8 251 8.7
2009-09-09 08:56:59 51°10.162 2°41.815 258.2 4 247 8.4
2009-09-09 08:57:59 51°10.138 2°41.719 260.6 4 248 8.5
2009-09-09 08:58:59 51°10.116 2°41.621 260.7 3.9 248 8.9
2009-09-09 08:59:59 51°10.096 2°41.524 267.9 3.8 255 8.5
2009-09-09 09:00:59 51°10.082 2°41.429 273.1 3.5 256 8.7
2009-09-09 09:01:59 51°10.071 2°41.338 280.9 3.5 263 8.9
2009-09-09 09:02:59 51°10.065 2°41.25 293.2 3.2 267 9
2009-09-09 09:03:59 51°10.062 2°41.17 298.6 3.7 275 8.9
2009-09-09 09:05:00 51°10.086 2°41.047 310.2 3.8 287 9.5
2009-09-09 09:05:59 51°10.093 2°40.968 310.2 2.7 266 9.3
2009-09-09 09:07:00 51°10.086 2°40.907 308.4 2.2 252 9.5
2009-09-09 09:07:59 51°10.09 2°40.843 335.8 2.8 302 9.7
2009-09-09 09:08:59 51°10.119 2°40.835 53.4 2.1 66 9.9
2009-09-09 09:09:59 51°10.122 2°40.947 79.3 6.5 86 9.8
2009-09-09 09:11:00 51°10.134 2°41.157 83.5 9 89 9.7
2009-09-09 09:12:00 51°10.132 2°41.403 88.2 9.3 88 8.8
2009-09-09 09:12:59 51°10.129 2°41.649 87.6 9.4 91 8.2
2009-09-09 09:14:00 51°10.126 2°41.904 85.4 9.4 87 8.3
2009-09-09 09:14:59 51°10.123 2°42.152 87.9 9.5 93 8.2
2009-09-09 09:15:59 51°10.121 2°42.327 84.2 3.2 102 8.4
2009-09-09 09:16:59 51°10.098 2°42.357 121.8 1.5 194 8.3
2009-09-09 09:17:59 51°10.074 2°42.338 130.4 1.7 213 8.3
2009-09-09 09:18:59 51°10.053 2°42.314 119.7 1.6 219 8.3
2009-09-09 09:19:59 51°10.034 2°42.287 113.3 1.5 222 8.5
2009-09-09 09:20:59 51°10.014 2°42.261 107.6 1.5 223 8.4
2009-09-09 09:21:59 51°9.993 2°42.235 107.5 1.7 217 8.7
2009-09-09 09:23:00 51°9.973 2°42.208 103.9 1.5 221 8.4
2009-09-09 09:23:59 51°9.953 2°42.183 105.2 1.6 218 8.1
2009-09-09 09:25:00 51°9.932 2°42.156 105.5 1.6 215 8.1
2009-09-09 09:25:59 51°9.91 2°42.13 110.8 1.6 216 8.1
2009-09-09 09:26:59 51°9.885 2°42.114 128.1 2.3 171 8.4
2009-09-09 09:27:59 51°9.822 2°42.095 203.4 5 215 8.4
2009-09-09 09:29:00 51°9.79 2°41.966 280 5.9 274 8.2
2009-09-09 09:29:59 51°9.814 2°41.768 290.4 10.1 282 8.2
2009-09-09 09:30:59 51°9.855 2°41.48 286.8 11.6 277 8.2
2009-09-09 09:31:59 51°9.872 2°41.173 278.9 11.8 275 8.3
2009-09-09 09:32:59 51°9.883 2°40.859 278.3 12 272 8.9
2009-09-09 09:33:59 51°9.895 2°40.543 279.3 12 273 8.9
2009-09-09 09:34:59 51°9.907 2°40.223 278.8 12.3 272 10.1
2009-09-09 09:35:59 51°9.921 2°39.902 280.5 12.2 272 10.4
2009-09-09 09:36:59 51°9.937 2°39.585 280.5 12.3 273 10.8
2009-09-09 09:37:59 51°9.954 2°39.262 280.9 12.2 275 11.9
2009-09-09 09:39:00 51°9.967 2°38.932 280 12.3 275 13.4
2009-09-09 09:39:59 51°9.981 2°38.613 280.4 12.3 275 14.4
2009-09-09 09:41:00 51°9.996 2°38.281 280.4 12.5 274 15.7
2009-09-09 09:41:59 51°10.009 2°37.959 280.3 12.4 274 16.4
2009-09-09 09:43:00 51°10.022 2°37.629 281.3 12.3 274 16.6
2009-09-09 09:43:59 51°10.035 2°37.308 279.9 12.3 274 17.2
2009-09-09 09:44:59 51°10.075 2°36.995 298.2 11.8 289 17.7
2009-09-09 09:46:00 51°10.15 2°36.7 302.4 11.8 295 17.8
2009-09-09 09:46:59 51°10.242 2°36.443 317.7 10.8 311 14.8
2009-09-09 09:48:00 51°10.389 2°36.319 359.1 9.4 355 9.8
2009-09-09 09:48:59 51°10.532 2°36.385 30.9 9.4 30 9.7
2009-09-09 09:50:00 51°10.675 2°36.5 27.2 9.5 21 10.5
2009-09-09 09:50:59 51°10.821 2°36.584 24.3 9.3 18 11.3
2009-09-09 09:52:00 51°10.97 2°36.662 24 9.3 18 12.2
2009-09-09 09:53:00 51°11.115 2°36.745 25.2 9.4 20 12.4
2009-09-09 09:54:00 51°11.261 2°36.817 21.2 9.3 15 12.6
2009-09-09 09:54:59 51°11.411 2°36.87 18.9 9.4 12 12.4
2009-09-09 09:55:59 51°11.561 2°36.93 20.2 9.1 15 12.4
2009-09-09 09:57:00 51°11.715 2°36.989 20.2 9.2 16 12
2009-09-09 09:57:59 51°11.864 2°37.047 20.4 9.6 14 11.3
2009-09-09 09:59:00 51°12.019 2°37.108 20.8 9.3 15 10.9
2009-09-09 09:59:59 51°12.17 2°37.156 13.1 9.6 5 10.4
2009-09-09 10:00:59 51°12.331 2°37.163 9.7 9.7 2 10.6
2009-09-09 10:02:00 51°12.492 2°37.166 8.5 9.7 -999 10.5
2009-09-09 10:02:59 51°12.651 2°37.181 14.4 9.6 8 10.6
2009-09-09 10:03:59 51°12.807 2°37.219 16.5 9.6 9 10.5
2009-09-09 10:05:00 51°12.963 2°37.259 17.2 9.4 7 9.8
2009-09-09 10:06:00 51°13.121 2°37.298 17 9.7 9 9.1
2009-09-09 10:07:00 51°13.28 2°37.338 16.9 9.6 10 9
2009-09-09 10:08:00 51°13.443 2°37.363 8.1 9.9 356 8.8
2009-09-09 10:08:59 51°13.603 2°37.299 349.9 10.4 338 11
2009-09-09 10:10:00 51°13.767 2°37.181 344.1 10.6 334 19.1
2009-09-09 10:11:00 51°13.92 2°37.037 341.6 10.6 329 19.9
2009-09-09 10:12:00 51°14.072 2°36.885 339 10.9 327 16.2
2009-09-09 10:13:00 51°14.216 2°36.723 335.6 10.6 322 12.6
2009-09-09 10:13:59 51°14.346 2°36.525 325.3 11.1 317 10.5
2009-09-09 10:14:55 51°14.466 2°36.329 326 10.9 318 11.6
2009-09-09 10:16:16 51°14.65 2°36.083 339.7 10.5 333 15.1
2009-09-09 10:17:16 51°14.811 2°35.999 356.5 10.2 346 16.9
2009-09-09 10:18:16 51°14.976 2°35.936 356.5 10.1 347 17.7
2009-09-09 10:19:15 51°15.135 2°35.871 355 10 347 18
2009-09-09 10:20:16 51°15.301 2°35.805 355.7 10 345 20.6
2009-09-09 10:21:15 51°15.458 2°35.739 355.6 9.9 344 25.1
2009-09-09 10:22:16 51°15.618 2°35.661 353.4 9.9 341 25.9
2009-09-09 10:23:15 51°15.769 2°35.58 354.9 9.8 341 26.4
2009-09-09 10:24:16 51°15.924 2°35.495 354.1 9.7 341 26.4
2009-09-09 10:25:16 51°16.077 2°35.413 355 9.6 342 26.7
2009-09-09 10:26:15 51°16.227 2°35.331 354.1 9.6 342 25.5
2009-09-09 10:27:16 51°16.385 2°35.249 353.9 9.9 341 25.1
2009-09-09 10:28:16 51°16.54 2°35.168 353.7 9.8 341 20.6
2009-09-09 10:29:16 51°16.698 2°35.088 354.5 9.9 343 13.8
2009-09-09 10:30:16 51°16.856 2°35.009 354.5 10.1 344 12.6
2009-09-09 10:31:16 51°17.019 2°34.932 355.1 10.4 344 11.6
2009-09-09 10:32:16 51°17.183 2°34.853 354.2 10.4 342 11.1
2009-09-09 10:33:16 51°17.345 2°34.768 353.1 10.2 342 10.9
2009-09-09 10:34:16 51°17.502 2°34.663 335.6 10.5 315 8.6
2009-09-09 10:35:16 51°17.592 2°34.406 290.9 11.8 283 23.7
2009-09-09 10:36:16 51°17.596 2°34.083 269.7 12.6 260 24.7
2009-09-09 10:37:16 51°17.562 2°33.755 272.3 12.2 269 25.1
2009-09-09 10:38:16 51°17.566 2°33.423 281.6 12.5 273 27.2
2009-09-09 10:39:16 51°17.569 2°33.096 272.1 12.5 265 26.6
2009-09-09 10:40:16 51°17.499 2°32.775 244.7 13 242 27.2
2009-09-09 10:41:15 51°17.385 2°32.49 236.6 12.9 238 27.3
2009-09-09 10:42:16 51°17.257 2°32.204 238.7 12.8 236 27.3
2009-09-09 10:43:15 51°17.138 2°31.925 240.5 12.7 236 27.1
2009-09-09 10:44:16 51°17.019 2°31.633 241 13 237 27.3
2009-09-09 10:45:16 51°16.903 2°31.344 241.5 12.7 240 27.9
2009-09-09 10:46:15 51°16.788 2°31.062 239.1 12.8 242 28.1
2009-09-09 10:47:16 51°16.669 2°30.771 240.3 12.9 240 27.6
2009-09-09 10:48:15 51°16.556 2°30.485 241.8 12.9 240 27.7
2009-09-09 10:49:16 51°16.435 2°30.192 240.5 13 237 28
2009-09-09 10:50:15 51°16.319 2°29.909 240.5 12.9 234 28.4
2009-09-09 10:51:16 51°16.199 2°29.614 240.3 13.4 238 28.6
2009-09-09 10:52:16 51°16.08 2°29.322 240.6 13.3 238 28.1
2009-09-09 10:53:16 51°15.96 2°29.03 240.3 13.1 239 28.2
2009-09-09 10:54:16 51°15.842 2°28.732 246.2 13.2 239 28.3
2009-09-09 10:55:16 51°15.748 2°28.418 251.3 13.2 246 27.8
2009-09-09 10:56:16 51°15.655 2°28.101 251.1 13.2 246 27.5
2009-09-09 10:57:16 51°15.563 2°27.784 251.9 13.3 247 27.5
2009-09-09 10:58:16 51°15.469 2°27.465 249.6 13.4 241 27.4
2009-09-09 10:59:16 51°15.377 2°27.151 249.9 13.3 245 24.9
2009-09-09 11:00:15 51°15.287 2°26.84 250.9 12.9 246 22.7
2009-09-09 11:01:16 51°15.268 2°26.512 288 12 279 16.3
2009-09-09 11:02:16 51°15.312 2°26.2 294.5 12 286 11.7
2009-09-09 11:03:16 51°15.332 2°25.885 273.7 10.6 266 10.1
2009-09-09 11:04:15 51°15.301 2°25.634 259.2 9.4 255 10.5
2009-09-09 11:05:16 51°15.258 2°25.394 255.9 9.1 251 9.9
2009-09-09 11:06:15 51°15.234 2°25.17 269.5 7.7 264 12.2
2009-09-09 11:07:16 51°15.226 2°25.014 282.4 4.7 266 10.7
2009-09-09 11:08:16 51°15.214 2°24.916 282.7 3.3 255 15.1
2009-09-09 11:09:15 51°15.205 2°24.84 293.3 2.8 259 15.9
2009-09-09 11:10:16 51°15.199 2°24.759 301.3 3.6 270 16.6
2009-09-09 11:11:16 51°15.214 2°24.665 322.6 3.5 293 18.5
2009-09-09 11:12:16 51°15.233 2°24.593 338.3 2.7 294 19.3
2009-09-09 11:13:15 51°15.239 2°24.536 332.5 2 265 20.6
2009-09-09 11:14:16 51°15.23 2°24.483 322.7 2.3 253 21.1
2009-09-09 11:15:16 51°15.228 2°24.411 316.8 3.1 285 21.4
2009-09-09 11:16:16 51°15.256 2°24.327 334.7 3.6 310 22.8
2009-09-09 11:17:16 51°15.301 2°24.266 345.9 3.7 324 24.3
2009-09-09 11:18:16 51°15.347 2°24.201 342.3 3.6 316 27.3
2009-09-09 11:19:16 51°15.392 2°24.135 337.6 3.8 313 27.6
2009-09-09 11:20:16 51°15.429 2°24.044 324.6 4.1 302 28.5
2009-09-09 11:21:16 51°15.468 2°23.958 338.3 3.9 316 29.8
2009-09-09 11:22:16 51°15.514 2°23.91 3.8 2.7 341 30.4
2009-09-09 11:23:15 51°15.556 2°23.912 26.3 2.6 17 31.1
2009-09-09 11:24:16 51°15.586 2°23.951 50.8 2.6 61 31.2
2009-09-09 11:25:16 51°15.602 2°24.02 60.9 2.9 76 30
2009-09-09 11:26:16 51°15.615 2°24.088 57.8 2.8 72 30.6
2009-09-09 11:27:16 51°15.631 2°24.156 57 2.8 69 29.6
2009-09-09 11:28:16 51°15.649 2°24.221 56.2 2.6 68 29.3
2009-09-09 11:29:15 51°15.665 2°24.282 55.4 2.5 64 28.2
2009-09-09 11:30:16 51°15.683 2°24.343 55.9 2.5 66 28.2
2009-09-09 11:31:16 51°15.701 2°24.408 53.8 2.7 63 28.3
2009-09-09 11:32:16 51°15.725 2°24.468 50 2.7 56 27.4
2009-09-09 11:33:16 51°15.752 2°24.528 50.1 2.8 57 27
2009-09-09 11:34:16 51°15.776 2°24.589 51.2 2.4 60 26.3
2009-09-09 11:35:16 51°15.802 2°24.64 39.6 2.7 42 26.3
2009-09-09 11:36:16 51°15.837 2°24.684 38.8 2.6 36 26.4
2009-09-09 11:37:16 51°15.874 2°24.729 38.6 2.7 39 25.6
2009-09-09 11:38:15 51°15.909 2°24.772 38.6 2.6 35 26.4
2009-09-09 11:39:16 51°15.944 2°24.817 40.7 2.7 41 25.8
2009-09-09 11:40:16 51°15.98 2°24.867 41 2.9 42 25.3
2009-09-09 11:41:16 51°16.017 2°24.916 39.7 2.9 41 25.1
2009-09-09 11:42:16 51°16.05 2°24.963 42.2 2.7 46 25.5
2009-09-09 11:43:16 51°16.082 2°25.014 40.5 2.8 43 24.9
2009-09-09 11:44:16 51°16.117 2°25.064 40.3 3 44 25.5
2009-09-09 11:45:16 51°16.151 2°25.11 39.3 2.6 42 24.7
2009-09-09 11:46:16 51°16.188 2°25.153 29 2.8 23 24.8
2009-09-09 11:47:16 51°16.236 2°25.154 6.9 3.2 347 25.9
2009-09-09 11:48:16 51°16.287 2°25.122 350.4 3.4 327 27.4
2009-09-09 11:49:16 51°16.328 2°25.053 328.2 3.8 301 30.2
2009-09-09 11:50:16 51°16.356 2°24.951 306.1 4.7 283 32
2009-09-09 11:51:16 51°16.361 2°24.822 284.1 5.2 267 33.7
2009-09-09 11:52:16 51°16.339 2°24.684 262.5 5.5 252 33.6
2009-09-09 11:53:16 51°16.315 2°24.561 278.1 4.2 258 33.8
2009-09-09 11:54:16 51°16.306 2°24.457 289.7 3.8 261 34.8
2009-09-09 11:55:16 51°16.291 2°24.357 284.8 3.9 256 35.6
2009-09-09 11:56:16 51°16.276 2°24.257 287 3.9 259 34.8
2009-09-09 11:57:16 51°16.263 2°24.156 290.9 3.9 259 35.8
2009-09-09 11:58:16 51°16.255 2°24.06 308.2 3.2 265 36.7
2009-09-09 11:59:15 51°16.25 2°23.982 316 2.8 267 37.2
2009-09-09 12:00:16 51°16.247 2°23.9 317.3 3 265 38.5
2009-09-09 12:01:16 51°16.236 2°23.829 315.8 2.7 251 38.7
2009-09-09 12:02:16 51°16.227 2°23.765 331.8 2.5 273 38.7
2009-09-09 12:03:16 51°16.254 2°23.747 44 2.4 61 38.9
2009-09-09 12:04:16 51°16.244 2°23.877 85.5 7.8 94 38.1
2009-09-09 12:05:16 51°16.24 2°24.119 84.1 9.5 91 36.6
2009-09-09 12:06:16 51°16.227 2°24.375 89.1 9.7 94 34.2
2009-09-09 12:07:16 51°16.209 2°24.639 90.8 10.2 94 32.6
2009-09-09 12:08:16 51°16.197 2°24.907 90 9.9 89 29.1
2009-09-09 12:09:16 51°16.185 2°25.166 89.1 7.8 95 24.8
2009-09-09 12:10:16 51°16.172 2°25.305 87.4 4 100 19.9
2009-09-09 12:11:16 51°16.158 2°25.395 88.2 3 107 14.4
2009-09-09 12:12:16 51°16.143 2°25.467 89.4 2.4 116 13.6
2009-09-09 12:13:16 51°16.125 2°25.487 83.6 1.4 168 14.4
2009-09-09 12:14:16 51°16.104 2°25.481 90 1.3 200 14.1
2009-09-09 12:15:16 51°16.08 2°25.473 105.3 1.6 198 14.4
2009-09-09 12:16:16 51°16.06 2°25.46 114.8 1.3 209 14.5
2009-09-09 12:17:16 51°16.039 2°25.446 120.8 1.4 199 14.3
2009-09-09 12:18:27 51°16.017 2°25.432 123.5 1.3 205 14.8
2009-09-09 12:19:26 51°15.996 2°25.417 127.9 1.5 212 14.6
2009-09-09 12:20:36 51°15.963 2°25.427 125.7 4.2 139 15.1
2009-09-09 12:21:35 51°15.913 2°25.57 108.2 7.6 114 13.1
2009-09-09 12:22:36 51°15.855 2°25.787 108.2 9.8 114 13.8
2009-09-09 12:23:35 51°15.795 2°26.045 105.5 10.7 108 11.7
2009-09-09 12:24:35 51°15.767 2°26.312 92.5 10.2 99 13.1
2009-09-09 12:25:35 51°15.757 2°26.583 89 10.2 94 15.1
2009-09-09 12:26:36 51°15.758 2°26.858 81.9 10.2 82 18.9
2009-09-09 12:27:35 51°15.777 2°27.12 77.6 10 83 22.5
2009-09-09 12:28:35 51°15.812 2°27.37 68.3 9.8 74 26
2009-09-09 12:29:36 51°15.867 2°27.619 66.1 9.5 72 26.7
2009-09-09 12:30:35 51°15.918 2°27.858 66.5 9.8 71 28.4
2009-09-09 12:31:36 51°15.97 2°28.11 67.5 10.1 73 29.2
2009-09-09 12:32:35 51°16.018 2°28.355 68.7 9.7 75 29.4
2009-09-09 12:33:35 51°16.067 2°28.603 67.8 9.9 72 29.5
2009-09-09 12:34:35 51°16.119 2°28.852 67.7 9.7 71 29.8
2009-09-09 12:35:35 51°16.167 2°29.102 69 9.9 71 30
2009-09-09 12:36:35 51°16.216 2°29.346 68.5 7.9 73 29.6
2009-09-09 12:37:35 51°16.237 2°29.485 64.8 3.2 81 30.3
2009-09-09 12:38:35 51°16.233 2°29.53 64.4 1 160 29.8
2009-09-09 12:39:36 51°16.209 2°29.534 78.1 1.5 182 29.9
2009-09-09 12:40:36 51°16.183 2°29.527 103.9 1.6 192 30.3
2009-09-09 12:41:35 51°16.155 2°29.515 123.8 1.8 198 30.1
2009-09-09 12:42:35 51°16.128 2°29.502 129.8 1.6 197 30
2009-09-09 12:43:35 51°16.103 2°29.491 124.5 1.6 195 30.3
2009-09-09 12:44:36 51°16.076 2°29.515 87.2 2.3 119 30.5
2009-09-09 12:45:36 51°16.087 2°29.565 26 2.6 27 30.4
2009-09-09 12:46:36 51°16.164 2°29.651 41.5 7.4 45 30.5
2009-09-09 12:47:36 51°16.253 2°29.817 48.9 9.3 51 29.5
2009-09-09 12:48:35 51°16.341 2°30.034 57.8 10.1 62 30.3
2009-09-09 12:49:36 51°16.426 2°30.276 58.1 10.3 60 30.1
2009-09-09 12:50:35 51°16.511 2°30.504 57.4 10.3 62 29.6
2009-09-09 12:51:36 51°16.587 2°30.754 62.2 10.2 65 29.7
2009-09-09 12:52:35 51°16.663 2°30.998 61.1 10.5 65 29.2
2009-09-09 12:53:35 51°16.739 2°31.244 61.1 10.5 65 29.7
2009-09-09 12:54:36 51°16.843 2°31.46 44.9 10.2 45 29.8
2009-09-09 12:55:35 51°16.962 2°31.646 43.4 10.1 45 28.5
2009-09-09 12:56:36 51°17.082 2°31.838 43.9 10.1 44 28.5
2009-09-09 12:57:36 51°17.198 2°32.03 45 10.2 46 27.8
2009-09-09 12:58:36 51°17.305 2°32.241 56.2 10.1 58 27.3
2009-09-09 12:59:35 51°17.383 2°32.484 62 10.7 65 29.4
2009-09-09 13:00:36 51°17.461 2°32.74 62.8 10.4 63 29.2
2009-09-09 13:01:35 51°17.538 2°32.981 60.3 10.6 61 28.6
2009-09-09 13:02:36 51°17.625 2°33.231 58.5 10.6 62 29.2
2009-09-09 13:03:36 51°17.71 2°33.471 59.1 10.1 60 28.1
2009-09-09 13:04:36 51°17.798 2°33.712 58.7 10.7 61 28.9
2009-09-09 13:05:36 51°17.886 2°33.956 58.6 10.6 61 30.4
2009-09-09 13:06:36 51°17.976 2°34.201 58.1 10.7 62 30.6
2009-09-09 13:07:36 51°18.065 2°34.442 58.3 10.7 61 29.7
2009-09-09 13:08:36 51°18.154 2°34.686 57.8 10.5 60 29.6
2009-09-09 13:09:36 51°18.241 2°34.927 58.3 10.7 60 30.7
2009-09-09 13:10:36 51°18.329 2°35.174 58.2 10.6 62 27.2
2009-09-09 13:11:36 51°18.419 2°35.421 58.2 10.9 59 29.5
2009-09-09 13:12:36 51°18.509 2°35.668 58.2 10.7 60 29.8
2009-09-09 13:13:36 51°18.598 2°35.915 58.5 10.9 59 24.6
2009-09-09 13:14:36 51°18.652 2°36.086 60.2 5.1 66 27.3
2009-09-09 13:15:36 51°18.679 2°36.191 57.7 3.8 69 23.2
2009-09-09 13:16:36 51°18.696 2°36.274 58.5 2.3 83 25.6
2009-09-09 13:17:36 51°18.687 2°36.3 75 1 168 25.5
2009-09-09 13:18:38 51°18.67 2°36.303 104.6 1.1 178 25.9
2009-09-09 13:19:36 51°18.654 2°36.306 122.5 0.9 181 26.5
2009-09-09 13:20:36 51°18.638 2°36.309 129.2 1 182 26.8
2009-09-09 13:21:36 51°18.623 2°36.31 130.1 0.9 179 27.2
2009-09-09 13:22:36 51°18.6 2°36.334 122.5 3.3 130 25.9
2009-09-09 13:23:37 51°18.558 2°36.491 103.9 8.7 106 23.8
2009-09-09 13:24:36 51°18.488 2°36.714 135.6 10.1 134 17.1
2009-09-09 13:25:36 51°18.373 2°36.938 121.1 11.2 119 21.5
2009-09-09 13:26:36 51°18.26 2°37.177 130 11.4 132 23.2
2009-09-09 13:27:36 51°18.141 2°37.408 131.3 11.4 128 25.5
2009-09-09 13:28:36 51°18.017 2°37.631 132.2 11.2 130 26.7
2009-09-09 13:29:36 51°17.897 2°37.857 130.2 11.2 126 28.9
2009-09-09 13:30:36 51°17.777 2°38.082 129.3 11.1 134 29.6
2009-09-09 13:31:36 51°17.658 2°38.311 130.8 11.2 127 30.2
2009-09-09 13:32:36 51°17.558 2°38.517 123.4 6.5 122 30.1
2009-09-09 13:33:36 51°17.535 2°38.602 104.3 2.1 114 29.7
2009-09-09 13:34:36 51°17.524 2°38.621 114.4 0.6 184 30.1
2009-09-09 13:35:36 51°17.512 2°38.627 131.3 0.8 149 30
2009-09-09 13:36:36 51°17.502 2°38.636 129.3 0.8 154 30.1
2009-09-09 13:37:36 51°17.491 2°38.645 122.7 0.7 155 29.8
2009-09-09 13:38:36 51°17.481 2°38.653 119.8 0.6 151 29.2
2009-09-09 13:39:36 51°17.467 2°38.673 117.9 1.9 120 29.1
2009-09-09 13:40:36 51°17.433 2°38.791 118.5 7.4 120 28.4
2009-09-09 13:41:36 51°17.325 2°38.917 147.6 8.6 147 24.6
2009-09-09 13:42:36 51°17.196 2°39.032 160.7 9.7 154 15.2
2009-09-09 13:43:36 51°17.021 2°39.095 177.7 11.3 176 13
2009-09-09 13:44:36 51°16.836 2°39.14 178.6 11.4 170 14.1
2009-09-09 13:45:36 51°16.653 2°39.188 172.7 11.1 166 15.3
2009-09-09 13:46:36 51°16.473 2°39.237 172.6 11 166 17.3
2009-09-09 13:47:36 51°16.292 2°39.286 175.6 11.1 171 20.4
2009-09-09 13:48:36 51°16.113 2°39.328 175.6 10.9 172 21.3
2009-09-09 13:49:36 51°15.935 2°39.379 171.8 10.6 175 22
2009-09-09 13:50:36 51°15.756 2°39.431 176.1 10.9 167 22.5
2009-09-09 13:51:36 51°15.578 2°39.45 190.7 10.6 191 22.4
2009-09-09 13:52:36 51°15.401 2°39.414 193.3 10.7 192 21.9
2009-09-09 13:53:36 51°15.226 2°39.37 190.8 10.5 189 21
2009-09-09 13:54:36 51°15.049 2°39.333 189.3 10.7 180 20.4
2009-09-09 13:55:36 51°14.902 2°39.321 174.3 5.8 165 19.3
2009-09-09 13:56:36 51°14.856 2°39.378 128.6 1.9 124 19.4
2009-09-09 13:57:36 51°14.849 2°39.394 115.4 0.4 125 18.8
2009-09-09 13:58:36 51°14.843 2°39.401 132 0.6 151 18.7
2009-09-09 13:59:36 51°14.835 2°39.414 136.8 1.1 134 19
2009-09-09 14:00:36 51°14.808 2°39.5 113.5 5.9 110 18.5
2009-09-09 14:01:36 51°14.802 2°39.64 86.6 3.7 91 18.2
2009-09-09 14:02:35 51°14.795 2°39.687 107.5 0.8 132 17.9
2009-09-09 14:03:36 51°14.786 2°39.708 124.8 0.9 115 18.7
2009-09-09 14:04:36 51°14.777 2°39.728 124.2 0.9 126 18.1
2009-09-09 14:05:36 51°14.77 2°39.748 117.2 1 118 17.4
2009-09-09 14:06:36 51°14.76 2°39.767 115.9 0.9 128 17.9
2009-09-09 14:07:37 51°14.752 2°39.784 115.4 0.8 127 17.5
2009-09-09 14:08:36 51°14.745 2°39.8 121.2 0.7 124 18
2009-09-09 14:09:36 51°14.734 2°39.823 121.7 2.1 115 17.3
2009-09-09 14:10:36 51°14.699 2°39.966 110.6 9.1 109 17.2
2009-09-09 14:11:36 51°14.642 2°40.245 110.6 11.9 111 16.2
2009-09-09 14:12:35 51°14.588 2°40.542 106.2 11.9 97 16.9
2009-09-09 14:13:36 51°14.563 2°40.852 92.1 11.6 88 16.9
2009-09-09 14:14:36 51°14.574 2°41.162 91.2 11.8 95 16.9
2009-09-09 14:15:36 51°14.546 2°41.468 105.1 11.6 100 17.7
2009-09-09 14:16:37 51°14.502 2°41.776 104.6 11.9 104 17.2
2009-09-09 14:17:36 51°14.481 2°42.084 95.5 11.9 94 18.9
2009-09-09 14:18:36 51°14.486 2°42.397 83.4 11.8 83 20.2
2009-09-09 14:19:36 51°14.527 2°42.702 77.5 11.8 76 20.8
2009-09-09 14:20:36 51°14.585 2°42.999 69.1 11.7 68 21.1
2009-09-09 14:21:36 51°14.67 2°43.28 62.7 11.7 62 20.8
2009-09-09 14:22:36 51°14.755 2°43.558 63.2 11.7 64 20.9
2009-09-09 14:23:37 51°14.843 2°43.848 64.7 12 66 21.1
2009-09-09 14:24:36 51°14.928 2°44.129 64.3 12 62 21.1
2009-09-09 14:25:37 51°15.012 2°44.422 65.9 12 66 20.7
2009-09-09 14:26:36 51°15.093 2°44.706 65.2 11.3 65 20.6
2009-09-09 14:27:36 51°15.14 2°44.871 56.1 4.2 64 20.3
2009-09-09 14:28:36 51°15.158 2°44.937 43 1.6 86 20.5
2009-09-09 14:29:38 51°15.151 2°44.963 62.3 1 119 20.2
2009-09-09 14:30:36 51°15.146 2°44.982 92 0.8 101 20
2009-09-09 14:31:36 51°15.144 2°45.004 114.9 0.9 99 20.6
2009-09-09 14:32:36 51°15.141 2°45.028 127.9 0.9 88 20
2009-09-09 14:33:36 51°15.139 2°45.053 128.8 0.9 92 20.2
2009-09-09 14:34:36 51°15.135 2°45.083 118.9 1.2 98 19.9
2009-09-09 14:35:36 51°15.132 2°45.113 113.6 1.2 94 20
2009-09-09 14:36:36 51°15.128 2°45.145 112 2 100 19.7
2009-09-09 14:37:36 51°15.122 2°45.229 95.9 5 91 19.8
2009-09-09 14:38:36 51°15.133 2°45.412 84.6 8 85 19.2
2009-09-09 14:39:37 51°15.138 2°45.646 92.4 9.8 90 18.2
2009-09-09 14:40:36 51°15.136 2°45.945 93.2 12.1 90 17.1
2009-09-09 14:41:36 51°15.129 2°46.269 94.3 12.3 91 15.8
2009-09-09 14:42:36 51°15.12 2°46.591 94.5 12.2 95 14.9
2009-09-09 14:43:36 51°15.114 2°46.91 93.7 12 94 13.4
2009-09-09 14:44:36 51°15.107 2°47.228 94.6 11.9 93 12.7
2009-09-09 14:45:36 51°15.099 2°47.547 96.8 12.1 90 13
2009-09-09 14:46:36 51°15.091 2°47.865 96.2 12 90 15.6
2009-09-09 14:47:36 51°15.082 2°48.186 95.1 12.1 91 16.2
2009-09-09 14:48:37 51°15.079 2°48.513 93 12.2 88 16.1
2009-09-09 14:49:36 51°15.071 2°48.827 95.3 12 89 15.9
2009-09-09 14:50:36 51°15.054 2°49.146 100.9 12.1 95 16.3
2009-09-09 14:51:36 51°15.029 2°49.464 100.8 12.1 96 16.4
2009-09-09 14:52:36 51°15.007 2°49.782 98.5 12 92 15.7
2009-09-09 14:53:36 51°15 2°50.1 95.3 12 93 15.8
2009-09-09 14:54:36 51°14.995 2°50.419 93.7 12.1 86 15.8
2009-09-09 14:55:36 51°14.989 2°50.735 96 12 91 15.8
2009-09-09 14:56:36 51°14.984 2°51.049 95.3 11.9 92 15.2
2009-09-09 14:57:36 51°14.976 2°51.364 96.1 11.9 95 14.6
2009-09-09 14:58:36 51°14.967 2°51.674 95.1 11.6 93 14.4
2009-09-09 14:59:37 51°14.959 2°51.991 96.2 11.7 89 13.9
2009-09-09 15:00:36 51°14.947 2°52.297 99.2 11.8 97 13.2
2009-09-09 15:01:35 51°14.917 2°52.603 102.5 11.8 101 13.6
2009-09-09 15:02:35 51°14.888 2°52.913 101.6 12.1 99 13.1
2009-09-09 15:03:35 51°14.865 2°53.228 99 11.7 93 13
2009-09-09 15:04:36 51°14.823 2°53.537 109.4 11.7 103 13.9
2009-09-09 15:05:36 51°14.758 2°53.825 115 11.4 110 13.5
2009-09-09 15:06:36 51°14.696 2°54.115 114.6 11.6 110 14
2009-09-09 15:07:36 51°14.613 2°54.393 125.5 11.5 125 14.1
2009-09-09 15:08:36 51°14.524 2°54.662 122.5 11.5 117 13.7
2009-09-09 15:09:36 51°14.424 2°54.923 126.9 11.4 120 13.8
2009-09-09 15:10:37 51°14.308 2°55.163 131.8 10.7 131 14
2009-09-09 15:11:37 51°14.192 2°55.347 141.3 9.7 143 15
2009-09-09 15:12:36 51°14.067 2°55.449 154.6 8.2 154 14.3
2009-09-09 15:13:36 51°13.949 2°55.536 157.2 7.5 156 14.4
2009-09-09 15:14:36 51°13.84 2°55.617 152.7 6.7 152 14.7
2009-09-09 15:15:40 51°13.754 2°55.721 134.1 5.7 136 -999
2009-09-09 15:16:40 51°13.703 2°55.826 119.9 4.6 120 -999
2009-09-09 15:17:40 51°13.673 2°55.919 109.8 3.2 114 -999
2009-09-09 15:18:40 51°13.662 2°55.956 120.4 0.2 75 -999